createdAt,value
2019-03-30T00:02:03.761Z,3.00
2019-03-30T00:04:33.638Z,2.90
2019-03-30T00:07:03.778Z,2.80
2019-03-30T00:09:33.898Z,2.80
2019-03-30T00:12:03.734Z,2.80
2019-03-30T00:14:33.592Z,2.80
2019-03-30T00:17:03.827Z,2.70
2019-03-30T00:19:35.034Z,2.70
2019-03-30T00:22:05.146Z,2.70
2019-03-30T00:24:34.960Z,2.60
2019-03-30T00:27:05.290Z,2.60
2019-03-30T00:29:35.123Z,2.60
2019-03-30T00:32:04.934Z,2.50
2019-03-30T00:34:34.777Z,2.50
2019-03-30T00:37:04.594Z,2.50
2019-03-30T00:39:34.443Z,2.50
2019-03-30T00:42:04.303Z,2.40
2019-03-30T00:44:34.138Z,2.40
2019-03-30T00:47:04.042Z,2.30
2019-03-30T00:49:33.995Z,2.30
2019-03-30T00:52:04.291Z,2.30
2019-03-30T00:54:34.098Z,2.30
2019-03-30T00:57:03.948Z,2.20
2019-03-30T00:59:33.763Z,2.20
2019-03-30T01:02:03.971Z,2.20
2019-03-30T01:04:33.786Z,2.20
2019-03-30T01:07:22.493Z,2.10
2019-03-30T01:09:52.307Z,2.10
2019-03-30T01:12:22.194Z,2.00
2019-03-30T01:14:52.041Z,2.00
2019-03-30T01:17:21.870Z,2.00
2019-03-30T01:20:02.372Z,1.90
2019-03-30T01:22:23.185Z,1.90
2019-03-30T01:24:53.017Z,1.90
2019-03-30T01:27:23.271Z,1.90
2019-03-30T01:29:53.111Z,1.80
2019-03-30T01:32:22.933Z,1.90
2019-03-30T01:34:52.784Z,1.80
2019-03-30T01:37:22.613Z,1.80
2019-03-30T01:39:52.905Z,1.80
2019-03-30T01:42:22.743Z,1.80
2019-03-30T01:44:52.718Z,1.80
2019-03-30T01:47:22.538Z,1.70
2019-03-30T01:49:52.365Z,1.70
2019-03-30T01:52:22.234Z,1.60
2019-03-30T01:54:52.066Z,1.60
2019-03-30T01:57:21.910Z,1.60
2019-03-30T01:59:51.731Z,1.60
2019-03-30T02:02:21.759Z,1.60
2019-03-30T02:04:51.569Z,1.60
2019-03-30T02:07:21.818Z,1.60
2019-03-30T02:09:51.638Z,1.50
2019-03-30T02:12:21.590Z,1.50
2019-03-30T02:14:51.490Z,1.50
2019-03-30T02:17:21.274Z,1.50
2019-03-30T02:19:51.114Z,1.50
2019-03-30T02:22:21.117Z,1.50
2019-03-30T02:24:51.090Z,1.50
2019-03-30T02:27:20.902Z,1.40
2019-03-30T02:29:51.703Z,1.40
2019-03-30T02:32:21.538Z,1.40
2019-03-30T02:34:51.375Z,1.40
2019-03-30T02:37:21.581Z,1.40
2019-03-30T02:39:51.436Z,1.40
2019-03-30T02:42:22.072Z,1.30
2019-03-30T02:44:52.082Z,1.30
2019-03-30T02:47:21.919Z,1.30
2019-03-30T02:49:52.141Z,1.30
2019-03-30T02:52:21.989Z,1.30
2019-03-30T02:54:51.867Z,1.20
2019-03-30T02:57:21.671Z,1.20
2019-03-30T02:59:51.524Z,1.20
2019-03-30T03:02:21.353Z,1.20
2019-03-30T03:04:51.201Z,1.20
2019-03-30T03:07:21.056Z,1.10
2019-03-30T03:09:50.859Z,1.10
2019-03-30T03:12:21.082Z,1.10
2019-03-30T03:15:09.784Z,1.10
2019-03-30T03:17:39.599Z,1.00
2019-03-30T03:20:09.471Z,1.10
2019-03-30T03:22:39.697Z,1.00
2019-03-30T03:25:28.522Z,1.00
2019-03-30T03:27:58.390Z,1.00
2019-03-30T03:30:28.417Z,1.00
2019-03-30T03:32:58.366Z,1.00
2019-03-30T03:35:28.188Z,1.00
2019-03-30T03:37:58.052Z,1.00
2019-03-30T03:40:27.886Z,1.00
2019-03-30T03:42:58.226Z,0.90
2019-03-30T03:45:33.821Z,0.90
2019-03-30T03:48:06.186Z,0.90
2019-03-30T03:50:46.327Z,0.90
2019-03-30T03:53:17.103Z,0.90
2019-03-30T03:55:48.971Z,0.80
2019-03-30T03:58:18.625Z,0.90
2019-03-30T04:00:48.495Z,0.80
2019-03-30T04:03:18.902Z,0.80
2019-03-30T04:05:50.059Z,0.80
2019-03-30T04:08:19.874Z,0.80
2019-03-30T04:10:50.344Z,0.70
2019-03-30T04:13:20.325Z,0.70
2019-03-30T04:15:50.308Z,0.70
2019-03-30T04:18:20.607Z,0.70
2019-03-30T04:20:50.475Z,0.70
2019-03-30T04:23:20.297Z,0.70
2019-03-30T04:25:50.591Z,0.60
2019-03-30T04:28:20.418Z,0.60
2019-03-30T04:30:50.275Z,0.60
2019-03-30T04:33:20.470Z,0.60
2019-03-30T04:35:51.767Z,0.60
2019-03-30T04:38:22.392Z,0.60
2019-03-30T04:40:52.227Z,0.50
2019-03-30T04:43:22.074Z,0.50
2019-03-30T04:45:52.014Z,0.50
2019-03-30T04:48:22.230Z,0.50
2019-03-30T04:50:52.118Z,0.50
2019-03-30T04:53:21.953Z,0.50
2019-03-30T04:55:52.194Z,0.50
2019-03-30T04:58:22.027Z,0.40
2019-03-30T05:00:51.887Z,0.40
2019-03-30T05:03:21.846Z,0.40
2019-03-30T05:05:51.904Z,0.40
2019-03-30T05:08:21.743Z,0.40
2019-03-30T05:10:51.573Z,0.40
2019-03-30T05:13:21.449Z,0.40
2019-03-30T05:15:52.364Z,0.40
2019-03-30T05:18:22.378Z,0.40
2019-03-30T05:20:52.211Z,0.40
2019-03-30T05:23:22.079Z,0.40
2019-03-30T05:26:10.778Z,0.40
2019-03-30T05:28:40.651Z,0.40
2019-03-30T05:31:10.495Z,0.40
2019-03-30T05:33:40.350Z,0.40
2019-03-30T05:36:10.180Z,0.40
2019-03-30T05:38:40.457Z,0.50
2019-03-30T05:41:10.698Z,0.50
2019-03-30T05:43:59.410Z,0.50
2019-03-30T05:46:29.266Z,0.50
2019-03-30T05:48:59.432Z,0.50
2019-03-30T05:51:29.282Z,0.60
2019-03-30T05:53:59.141Z,0.60
2019-03-30T05:56:29.382Z,0.60
2019-03-30T05:58:59.405Z,0.70
2019-03-30T06:01:29.256Z,0.70
2019-03-30T06:03:59.082Z,0.80
2019-03-30T06:06:28.943Z,0.80
2019-03-30T06:08:58.914Z,0.90
2019-03-30T06:11:28.765Z,0.90
2019-03-30T06:13:58.755Z,1.00
2019-03-30T06:16:28.625Z,1.00
2019-03-30T06:18:58.861Z,1.10
2019-03-30T06:21:28.697Z,1.10
2019-03-30T06:23:58.562Z,1.20
2019-03-30T06:26:28.418Z,1.30
2019-03-30T06:28:58.288Z,1.40
2019-03-30T06:31:28.151Z,1.50
2019-03-30T06:33:58.344Z,1.70
2019-03-30T06:36:28.208Z,1.80
2019-03-30T06:38:58.608Z,2.00
2019-03-30T06:41:47.807Z,2.10
2019-03-30T06:44:18.073Z,2.20
2019-03-30T06:46:48.270Z,2.30
2019-03-30T06:49:18.141Z,2.40
2019-03-30T06:51:48.351Z,2.60
2019-03-30T06:54:18.316Z,2.70
2019-03-30T06:56:48.985Z,2.80
2019-03-30T06:59:19.704Z,3.00
2019-03-30T07:01:49.524Z,3.10
2019-03-30T07:04:19.390Z,3.30
2019-03-30T07:06:49.382Z,3.50
2019-03-30T07:09:20.657Z,3.70
2019-03-30T07:11:50.937Z,3.90
2019-03-30T07:14:20.891Z,4.10
2019-03-30T07:16:50.722Z,4.30
2019-03-30T07:19:20.581Z,4.60
2019-03-30T07:21:50.426Z,4.80
2019-03-30T07:24:20.410Z,5.00
2019-03-30T07:26:50.653Z,5.20
2019-03-30T07:29:20.499Z,5.50
2019-03-30T07:31:50.351Z,5.70
2019-03-30T07:34:20.594Z,5.90
2019-03-30T07:37:09.333Z,6.10
2019-03-30T07:39:39.534Z,6.30
2019-03-30T07:42:28.673Z,6.50
2019-03-30T07:44:58.513Z,6.70
2019-03-30T07:47:28.388Z,7.00
2019-03-30T07:49:58.550Z,7.30
2019-03-30T07:52:28.401Z,7.50
2019-03-30T07:54:58.225Z,7.80
2019-03-30T07:57:28.074Z,8.00
2019-03-30T07:59:57.898Z,8.20
2019-03-30T08:02:27.877Z,8.50
2019-03-30T08:04:58.090Z,8.70
2019-03-30T08:07:28.322Z,8.90
2019-03-30T08:09:58.539Z,9.10
2019-03-30T08:12:30.067Z,9.40
2019-03-30T08:15:00.393Z,9.70
2019-03-30T08:17:30.638Z,9.90
2019-03-30T08:20:00.495Z,10.20
2019-03-30T08:22:30.321Z,10.40
2019-03-30T08:25:00.503Z,10.60
2019-03-30T08:27:30.662Z,10.90
2019-03-30T08:30:00.570Z,11.10
2019-03-30T08:32:30.493Z,11.30
2019-03-30T08:35:00.409Z,11.50
2019-03-30T08:37:30.626Z,11.70
2019-03-30T08:40:00.485Z,11.80
2019-03-30T08:42:30.337Z,12.00
2019-03-30T08:45:00.364Z,12.20
2019-03-30T08:47:30.258Z,12.30
2019-03-30T08:50:00.353Z,12.50
2019-03-30T08:52:30.517Z,12.60
2019-03-30T08:55:00.617Z,12.80
2019-03-30T08:57:30.461Z,12.90
2019-03-30T09:00:00.372Z,13.10
2019-03-30T09:02:30.275Z,13.20
2019-03-30T09:05:00.118Z,13.30
2019-03-30T09:07:29.967Z,13.50
2019-03-30T09:09:59.802Z,13.60
2019-03-30T09:12:29.792Z,13.80
2019-03-30T09:14:59.614Z,13.80
2019-03-30T09:17:29.836Z,14.00
2019-03-30T09:19:59.677Z,14.10
2019-03-30T09:22:29.524Z,14.20
2019-03-30T09:24:59.384Z,14.30
2019-03-30T09:27:29.650Z,14.40
2019-03-30T09:30:00.368Z,14.60
2019-03-30T09:32:30.942Z,14.70
2019-03-30T09:35:00.816Z,14.90
2019-03-30T09:37:30.663Z,15.00
2019-03-30T09:40:00.618Z,15.00
2019-03-30T09:42:30.654Z,15.20
2019-03-30T09:45:01.470Z,15.20
2019-03-30T09:47:31.745Z,15.30
2019-03-30T09:50:02.757Z,15.30
2019-03-30T09:52:32.940Z,15.40
2019-03-30T09:55:03.570Z,15.60
2019-03-30T09:57:33.439Z,15.70
2019-03-30T10:00:03.286Z,15.90
2019-03-30T10:02:34.030Z,16.00
2019-03-30T10:05:03.927Z,16.10
2019-03-30T10:07:33.745Z,16.20
2019-03-30T10:10:03.599Z,16.40
2019-03-30T10:12:33.435Z,16.60
2019-03-30T10:15:03.290Z,16.70
2019-03-30T10:17:33.157Z,16.80
2019-03-30T10:20:04.517Z,16.80
2019-03-30T10:22:34.509Z,16.80
2019-03-30T10:25:04.374Z,16.90
2019-03-30T10:27:34.239Z,16.90
2019-03-30T10:30:04.738Z,17.00
2019-03-30T10:32:34.585Z,17.20
2019-03-30T10:35:04.819Z,17.30
2019-03-30T10:37:34.654Z,17.40
2019-03-30T10:40:04.579Z,17.50
2019-03-30T10:42:34.482Z,17.70
2019-03-30T10:45:04.347Z,18.00
2019-03-30T10:47:34.539Z,18.00
2019-03-30T10:50:05.275Z,17.90
2019-03-30T10:52:35.455Z,17.90
2019-03-30T10:55:05.546Z,17.70
2019-03-30T10:57:35.414Z,17.60
2019-03-30T11:00:05.589Z,17.50
2019-03-30T11:02:35.410Z,17.40
2019-03-30T11:05:05.404Z,17.30
2019-03-30T11:07:35.227Z,17.40
2019-03-30T11:10:05.670Z,17.80
2019-03-30T11:12:35.558Z,18.20
2019-03-30T11:15:05.781Z,18.30
2019-03-30T11:17:36.173Z,18.80
2019-03-30T11:20:06.321Z,19.40
2019-03-30T11:22:36.271Z,20.00
2019-03-30T11:25:08.258Z,20.60
2019-03-30T11:27:38.049Z,21.00
2019-03-30T11:30:08.328Z,21.40
2019-03-30T11:32:38.186Z,21.30
2019-03-30T11:35:08.052Z,20.90
2019-03-30T11:37:37.892Z,20.70
2019-03-30T11:40:07.738Z,20.90
2019-03-30T11:42:37.715Z,21.20
2019-03-30T11:45:07.651Z,21.30
2019-03-30T11:47:38.312Z,21.70
2019-03-30T11:50:08.623Z,22.20
2019-03-30T11:52:38.919Z,22.60
2019-03-30T11:55:21.227Z,22.70
2019-03-30T11:57:40.915Z,22.70
2019-03-30T12:00:10.829Z,23.00
2019-03-30T12:02:40.730Z,23.20
2019-03-30T12:05:10.566Z,23.60
2019-03-30T12:07:40.417Z,23.40
2019-03-30T12:10:10.385Z,23.50
2019-03-30T12:12:40.361Z,23.80
2019-03-30T12:15:10.292Z,24.10
2019-03-30T12:17:41.202Z,24.20
2019-03-30T12:20:11.602Z,24.40
2019-03-30T12:22:41.429Z,24.20
2019-03-30T12:25:11.255Z,24.60
2019-03-30T12:27:41.121Z,24.70
2019-03-30T12:30:11.090Z,24.70
2019-03-30T12:32:40.923Z,24.30
2019-03-30T12:35:10.741Z,24.50
2019-03-30T12:37:40.586Z,24.60
2019-03-30T12:40:10.414Z,24.80
2019-03-30T12:42:40.246Z,24.90
2019-03-30T12:45:11.003Z,24.70
2019-03-30T12:47:40.895Z,25.00
2019-03-30T12:50:10.999Z,24.80
2019-03-30T12:52:40.870Z,24.70
2019-03-30T12:55:10.697Z,24.60
2019-03-30T12:57:40.627Z,24.50
2019-03-30T13:00:10.466Z,24.70
2019-03-30T13:02:40.350Z,24.90
2019-03-30T13:05:10.490Z,24.60
2019-03-30T13:07:40.332Z,24.30
2019-03-30T13:10:10.695Z,24.30
2019-03-30T13:12:40.519Z,24.50
2019-03-30T13:15:10.490Z,24.50
2019-03-30T13:17:40.917Z,24.50
2019-03-30T13:20:10.748Z,24.70
2019-03-30T13:22:40.567Z,24.70
2019-03-30T13:25:10.425Z,24.60
2019-03-30T13:27:40.255Z,24.60
2019-03-30T13:30:10.571Z,24.60
2019-03-30T13:32:40.414Z,24.70
2019-03-30T13:35:10.252Z,24.40
2019-03-30T13:37:40.110Z,24.50
2019-03-30T13:40:10.063Z,24.10
2019-03-30T13:42:39.902Z,23.40
2019-03-30T13:45:10.546Z,23.20
2019-03-30T13:47:40.402Z,23.30
2019-03-30T13:50:10.258Z,23.10
2019-03-30T13:52:40.151Z,23.20
2019-03-30T13:55:10.070Z,23.50
2019-03-30T13:57:39.945Z,23.50
2019-03-30T14:00:09.778Z,23.00
2019-03-30T14:02:39.985Z,22.90
2019-03-30T14:05:09.986Z,23.10
2019-03-30T14:07:39.990Z,23.30
2019-03-30T14:10:10.141Z,22.90
2019-03-30T14:12:40.385Z,22.40
2019-03-30T14:15:10.249Z,22.00
2019-03-30T14:17:40.117Z,22.00
2019-03-30T14:20:10.310Z,22.00
2019-03-30T14:22:40.167Z,22.10
2019-03-30T14:25:10.354Z,22.40
2019-03-30T14:27:40.215Z,22.50
2019-03-30T14:30:10.669Z,22.60
2019-03-30T14:32:41.519Z,22.30
2019-03-30T14:35:11.760Z,22.30
2019-03-30T14:37:41.733Z,22.30
2019-03-30T14:40:11.662Z,21.90
2019-03-30T14:42:41.511Z,21.70
2019-03-30T14:45:12.113Z,21.70
2019-03-30T14:47:41.999Z,21.30
2019-03-30T14:50:11.937Z,20.80
2019-03-30T14:52:41.767Z,20.40
2019-03-30T14:55:11.634Z,20.00
2019-03-30T14:57:42.047Z,19.70
2019-03-30T15:00:11.936Z,19.50
2019-03-30T15:02:41.929Z,19.30
2019-03-30T15:05:11.804Z,19.20
2019-03-30T15:07:42.122Z,19.20
2019-03-30T15:10:12.680Z,19.10
2019-03-30T15:12:42.539Z,19.00
2019-03-30T15:15:12.744Z,19.00
2019-03-30T15:17:42.597Z,18.90
2019-03-30T15:20:12.469Z,18.90
2019-03-30T15:22:42.337Z,19.10
2019-03-30T15:25:12.242Z,19.70
2019-03-30T15:27:42.105Z,20.20
2019-03-30T15:30:11.957Z,20.40
2019-03-30T15:32:41.822Z,20.60
2019-03-30T15:35:11.745Z,20.30
2019-03-30T15:37:42.054Z,20.10
2019-03-30T15:40:12.383Z,20.00
2019-03-30T15:42:42.207Z,20.30
2019-03-30T15:45:12.065Z,21.00
2019-03-30T15:47:42.271Z,21.70
2019-03-30T15:50:12.083Z,22.50
2019-03-30T15:52:42.342Z,23.10
2019-03-30T15:55:12.265Z,23.60
2019-03-30T15:57:42.117Z,24.10
2019-03-30T16:00:12.062Z,24.20
2019-03-30T16:02:41.908Z,24.30
2019-03-30T16:05:15.176Z,24.50
2019-03-30T16:07:43.582Z,24.50
2019-03-30T16:10:14.573Z,24.60
2019-03-30T16:12:45.153Z,24.60
2019-03-30T16:15:15.338Z,24.60
2019-03-30T16:17:45.190Z,24.30
2019-03-30T16:20:15.366Z,24.10
2019-03-30T16:22:45.487Z,24.10
2019-03-30T16:25:15.360Z,24.00
2019-03-30T16:27:45.662Z,24.00
2019-03-30T16:30:15.870Z,23.90
2019-03-30T16:32:45.761Z,23.90
2019-03-30T16:35:15.613Z,23.50
2019-03-30T16:37:45.837Z,23.30
2019-03-30T16:40:16.184Z,22.80
2019-03-30T16:42:46.158Z,22.20
2019-03-30T16:45:16.122Z,21.60
2019-03-30T16:47:45.966Z,21.20
2019-03-30T16:50:15.834Z,20.80
2019-03-30T16:52:45.711Z,20.30
2019-03-30T16:55:15.550Z,19.80
2019-03-30T16:57:45.381Z,19.40
2019-03-30T17:00:15.244Z,19.00
2019-03-30T17:02:45.066Z,18.60
2019-03-30T17:05:15.074Z,18.30
2019-03-30T17:07:45.287Z,18.00
2019-03-30T17:10:15.546Z,17.70
2019-03-30T17:12:45.399Z,17.50
2019-03-30T17:15:15.248Z,17.20
2019-03-30T17:17:45.066Z,16.90
2019-03-30T17:20:14.913Z,16.60
2019-03-30T17:22:44.753Z,16.30
2019-03-30T17:25:14.659Z,16.00
2019-03-30T17:27:57.645Z,15.80
2019-03-30T17:30:16.370Z,15.60
2019-03-30T17:32:46.213Z,15.40
2019-03-30T17:35:16.041Z,15.20
2019-03-30T17:37:45.911Z,15.10
2019-03-30T17:40:15.872Z,15.00
2019-03-30T17:42:45.718Z,14.80
2019-03-30T17:45:15.729Z,14.70
2019-03-30T17:47:45.604Z,14.60
2019-03-30T17:50:15.434Z,14.50
2019-03-30T17:52:45.354Z,14.40
2019-03-30T17:55:15.202Z,14.40
2019-03-30T17:57:45.042Z,14.40
2019-03-30T18:00:16.447Z,14.40
2019-03-30T18:02:46.309Z,14.30
2019-03-30T18:05:16.157Z,14.30
2019-03-30T18:07:45.987Z,14.20
2019-03-30T18:10:16.174Z,14.20
2019-03-30T18:12:46.146Z,14.10
2019-03-30T18:15:16.030Z,14.10
2019-03-30T18:17:45.854Z,14.00
2019-03-30T18:20:15.722Z,13.90
2019-03-30T18:22:45.573Z,13.80
2019-03-30T18:25:15.413Z,13.80
2019-03-30T18:27:45.313Z,13.70
2019-03-30T18:30:15.182Z,13.60
2019-03-30T18:32:45.028Z,13.60
2019-03-30T18:35:15.219Z,13.50
2019-03-30T18:37:45.076Z,13.50
2019-03-30T18:40:27.249Z,13.40
2019-03-30T18:42:57.565Z,13.40
2019-03-30T18:45:28.171Z,13.30
2019-03-30T18:48:13.423Z,13.30
2019-03-30T18:50:44.189Z,13.20
2019-03-30T18:53:14.174Z,13.10
2019-03-30T18:55:44.862Z,13.00
2019-03-30T18:58:14.738Z,13.00
2019-03-30T19:00:44.577Z,12.90
2019-03-30T19:03:14.926Z,12.80
2019-03-30T19:05:45.138Z,12.80
2019-03-30T19:08:14.982Z,12.80
2019-03-30T19:10:44.845Z,12.70
2019-03-30T19:13:14.733Z,12.70
2019-03-30T19:15:44.580Z,12.60
2019-03-30T19:18:14.430Z,12.60
2019-03-30T19:20:44.288Z,12.60
2019-03-30T19:23:14.129Z,12.50
2019-03-30T19:25:44.007Z,12.50
2019-03-30T19:28:13.885Z,12.50
2019-03-30T19:30:43.724Z,12.50
2019-03-30T19:33:13.577Z,12.40
2019-03-30T19:35:43.536Z,12.40
2019-03-30T19:38:13.388Z,12.40
2019-03-30T19:40:43.226Z,12.30
2019-03-30T19:43:13.091Z,12.20
2019-03-30T19:45:43.383Z,12.20
2019-03-30T19:48:13.370Z,12.10
2019-03-30T19:50:43.190Z,12.00
2019-03-30T19:53:13.054Z,12.00
2019-03-30T19:55:42.915Z,11.90
2019-03-30T19:58:12.744Z,11.90
2019-03-30T20:00:42.594Z,11.80
2019-03-30T20:03:12.437Z,11.70
2019-03-30T20:05:44.581Z,11.60
2019-03-30T20:08:14.536Z,11.50
2019-03-30T20:10:44.771Z,11.40
2019-03-30T20:13:14.610Z,11.30
2019-03-30T20:15:45.121Z,11.20
2019-03-30T20:18:15.284Z,11.10
2019-03-30T20:20:45.915Z,11.00
2019-03-30T20:23:15.758Z,10.90
2019-03-30T20:25:48.771Z,10.70
2019-03-30T20:28:18.601Z,10.60
2019-03-30T20:30:48.505Z,10.50
2019-03-30T20:33:19.105Z,10.40
2019-03-30T20:35:49.089Z,10.30
2019-03-30T20:38:24.102Z,10.20
2019-03-30T20:40:54.331Z,10.10
2019-03-30T20:43:24.173Z,10.00
2019-03-30T20:45:54.019Z,10.00
2019-03-30T20:48:24.010Z,9.90
2019-03-30T20:50:53.855Z,9.90
2019-03-30T20:53:24.574Z,9.80
2019-03-30T20:55:55.231Z,9.70
2019-03-30T20:58:25.430Z,9.60
2019-03-30T21:00:56.611Z,9.50
2019-03-30T21:03:26.611Z,9.40
2019-03-30T21:05:56.926Z,9.30
2019-03-30T21:08:27.238Z,9.30
2019-03-30T21:10:57.186Z,9.20
2019-03-30T21:13:28.189Z,9.10
2019-03-30T21:15:58.097Z,9.00
2019-03-30T21:18:29.431Z,8.90
2019-03-30T21:20:59.534Z,8.80
2019-03-30T21:23:29.380Z,8.80
2019-03-30T21:25:59.621Z,8.70
2019-03-30T21:28:29.694Z,8.60
2019-03-30T21:30:59.766Z,8.60
2019-03-30T21:33:30.083Z,8.40
2019-03-30T21:36:00.060Z,8.40
2019-03-30T21:38:30.431Z,8.30
2019-03-30T21:41:00.671Z,8.30
2019-03-30T21:43:30.593Z,8.10
2019-03-30T21:46:01.130Z,8.10
2019-03-30T21:48:30.982Z,8.00
2019-03-30T21:51:00.858Z,7.90
2019-03-30T21:53:30.739Z,7.80
2019-03-30T21:56:00.569Z,7.80
2019-03-30T21:58:30.487Z,7.70
2019-03-30T22:01:00.717Z,7.60
2019-03-30T22:03:30.551Z,7.60
2019-03-30T22:06:00.911Z,7.50
2019-03-30T22:08:30.871Z,7.50
2019-03-30T22:11:00.698Z,7.40
2019-03-30T22:13:30.968Z,7.40
2019-03-30T22:16:00.835Z,7.40
2019-03-30T22:18:31.018Z,7.40
2019-03-30T22:21:19.730Z,7.30
2019-03-30T22:23:50.467Z,7.30
2019-03-30T22:26:20.642Z,7.30
2019-03-30T22:28:50.743Z,7.20
2019-03-30T22:31:20.562Z,7.20
2019-03-30T22:33:50.774Z,7.10
2019-03-30T22:36:20.795Z,7.10
2019-03-30T22:38:50.764Z,7.00
2019-03-30T22:41:20.599Z,7.00
2019-03-30T22:43:50.504Z,6.90
2019-03-30T22:46:20.342Z,6.90
2019-03-30T22:48:50.178Z,6.90
2019-03-30T22:51:20.068Z,6.80
2019-03-30T22:53:49.977Z,6.80
2019-03-30T22:56:19.834Z,6.80
2019-03-30T22:58:49.682Z,6.70
2019-03-30T23:01:20.739Z,6.70
2019-03-30T23:03:50.615Z,6.70
2019-03-30T23:06:20.609Z,6.60
2019-03-30T23:08:50.703Z,6.60
2019-03-30T23:11:21.290Z,6.60
2019-03-30T23:13:51.547Z,6.50
2019-03-30T23:16:21.786Z,6.50
2019-03-30T23:18:51.642Z,6.50
2019-03-30T23:21:21.506Z,6.40
2019-03-30T23:23:51.687Z,6.40
2019-03-30T23:26:21.571Z,6.30
2019-03-30T23:28:51.416Z,6.30
2019-03-30T23:31:21.229Z,6.20
2019-03-30T23:33:51.123Z,6.20
2019-03-30T23:36:21.095Z,6.20
2019-03-30T23:38:50.937Z,6.10
2019-03-30T23:41:20.811Z,6.10
2019-03-30T23:43:50.642Z,6.10
2019-03-30T23:46:20.501Z,6.00
2019-03-30T23:48:51.105Z,6.00
2019-03-30T23:51:20.982Z,6.00
2019-03-30T23:53:52.127Z,6.00
2019-03-30T23:56:22.966Z,6.00
2019-03-30T23:58:53.025Z,5.90
